Time;durP1;ratioP1;P1;durP2;ratioP2;P2;SDS_P1;SDS_P2;PMS_P1;PMS_P2;Temp;Humidity;BMP_temperature;BMP_pressure;BME280_temperature;BME280_humidity;BME280_pressure;Samples;Min_cycle;Max_cycle;Signal;HPM_P1;HPM_P2
2024/02/25 00:06:01;;;;;;;1.20;0.77;;;;;;;4.83;63.63;100321.75;15855141;28;20044;-48
2024/02/25 00:13:38;;;;;;;0.00;0.00;;;;;;;4.93;63.89;100320.66;15867020;28;20035;-49
2024/02/25 00:21:11;;;;;;;0.00;0.00;;;;;;;5.09;62.87;100321.31;15846510;28;20040;-49
2024/02/25 00:28:46;;;;;;;;;;;;;;;5.15;62.70;100316.25;15849889;28;20522;-46
2024/02/25 00:36:19;;;;;;;0.00;0.00;;;;;;;4.83;63.95;100326.25;15850164;28;19920;-46
2024/02/25 00:43:54;;;;;;;;;;;;;;;5.00;63.35;100330.38;15865491;28;20430;-50
2024/02/25 00:51:30;;;;;;;0.00;0.00;;;;;;;4.98;63.68;100324.41;15838352;28;19926;-52
2024/02/25 00:59:06;;;;;;;0.00;0.00;;;;;;;4.79;64.10;100332.94;15865825;28;20043;-47
2024/02/25 01:06:41;;;;;;;0.35;0.35;;;;;;;4.67;64.89;100329.91;15865757;28;20396;-51
2024/02/25 01:14:17;;;;;;;0.00;0.00;;;;;;;4.72;64.32;100327.53;15864494;28;20269;-48
2024/02/25 01:21:51;;;;;;;0.00;0.00;;;;;;;4.68;64.29;100334.22;15864046;28;20046;-47
2024/02/25 01:29:26;;;;;;;0.05;0.05;;;;;;;4.31;65.63;100321.78;15846261;28;20416;-47
2024/02/25 01:37:00;;;;;;;0.20;0.20;;;;;;;4.27;65.68;100313.34;15824819;28;20028;-50
2024/02/25 01:44:52;;;;;;;0.00;0.00;;;;;;;4.38;65.46;100317.38;15811304;28;20051;-50
2024/02/25 01:52:26;;;;;;;0.00;0.00;;;;;;;4.68;64.46;100312.94;15826900;28;20428;-48
2024/02/25 02:00:01;;;;;;;0.00;0.00;;;;;;;4.65;63.95;100307.16;15780014;28;20317;-45
2024/02/25 02:07:35;;;;;;;0.00;0.00;;;;;;;4.57;64.25;100300.94;15809852;28;20073;-48
2024/02/25 02:15:10;;;;;;;;;;;;;;;4.61;63.79;100301.38;15861463;28;20059;-46
2024/02/25 02:22:48;;;;;;;0.38;0.38;;;;;;;4.25;64.68;100298.59;15842468;28;20361;-46
2024/02/25 02:30:22;;;;;;;0.10;0.10;;;;;;;3.94;65.13;100299.50;15842144;28;20403;-49
2024/02/25 02:37:57;;;;;;;0.00;0.00;;;;;;;3.86;66.59;100293.44;15858865;28;20082;-46
2024/02/25 02:45:32;;;;;;;0.20;0.20;;;;;;;3.77;66.39;100298.78;15824299;28;20069;-46
2024/02/25 02:53:07;;;;;;;0.10;0.10;;;;;;;3.47;66.96;100292.53;15844305;28;20126;-47
2024/02/25 03:00:41;;;;;;;0.10;0.10;;;;;;;3.32;67.01;100281.03;15857004;28;20537;-46
2024/02/25 03:08:17;;;;;;;0.30;0.30;;;;;;;3.09;68.05;100290.75;15858881;28;20046;-46
2024/02/25 03:15:51;;;;;;;0.00;0.00;;;;;;;3.40;67.74;100283.59;15845307;28;20047;-49
2024/02/25 03:23:26;;;;;;;0.00;0.00;;;;;;;3.23;69.47;100280.25;15870103;28;20458;-52
2024/02/25 03:31:02;;;;;;;0.80;0.80;;;;;;;3.21;69.61;100278.75;15852504;28;20070;-49
2024/02/25 03:38:42;;;;;;;0.10;0.10;;;;;;;3.45;69.57;100273.31;15867852;28;20152;-49
2024/02/25 03:46:16;;;;;;;0.10;0.10;;;;;;;3.24;69.20;100265.97;15832895;28;20048;-47
2024/02/25 03:53:51;;;;;;;2.05;0.65;;;;;;;3.46;68.45;100271.50;15823191;28;20095;-51
2024/02/25 04:01:27;;;;;;;0.00;0.00;;;;;;;3.34;69.17;100263.09;15804487;28;20051;-48
2024/02/25 04:09:01;;;;;;;0.00;0.00;;;;;;;3.15;70.36;100264.34;15786580;28;20043;-50
2024/02/25 04:16:36;;;;;;;0.00;0.00;;;;;;;2.54;72.00;100268.56;15785837;28;20498;-46
2024/02/25 04:24:13;;;;;;;0.00;0.00;;;;;;;2.35;73.51;100279.56;15803339;28;20048;-46
2024/02/25 04:31:47;;;;;;;0.10;0.10;;;;;;;2.88;72.88;100270.13;15781872;28;20520;-48
2024/02/25 04:39:23;;;;;;;0.10;0.10;;;;;;;2.56;73.64;100271.88;15799888;28;20036;-47
2024/02/25 04:46:57;;;;;;;0.00;0.00;;;;;;;2.62;73.64;100265.09;15800644;28;20075;-47
2024/02/25 04:54:32;;;;;;;0.00;0.00;;;;;;;2.29;75.11;100259.88;15863714;28;20043;-51
2024/02/25 05:02:08;;;;;;;0.00;0.00;;;;;;;2.93;74.46;100262.47;15865507;28;20036;-49
2024/02/25 05:09:45;;;;;;;0.00;0.00;;;;;;;3.13;71.46;100270.84;15845298;28;20051;-47
2024/02/25 05:17:18;;;;;;;0.00;0.00;;;;;;;3.33;70.44;100270.22;15863390;28;20044;-47
2024/02/25 05:24:54;;;;;;;0.00;0.00;;;;;;;3.10;72.00;100279.16;15862918;28;20079;-51
2024/02/25 05:32:27;;;;;;;2.13;0.35;;;;;;;2.97;73.39;100269.91;15846506;28;20070;-46
2024/02/25 05:40:04;;;;;;;0.05;0.05;;;;;;;2.74;74.41;100274.31;15862409;28;20059;-50
2024/02/25 05:47:45;;;;;;;0.00;0.00;;;;;;;2.94;70.86;100274.75;15836044;28;20036;-46
2024/02/25 05:55:21;;;;;;;0.00;0.00;;;;;;;2.60;70.82;100286.44;15861737;28;20093;-52
2024/02/25 06:02:58;;;;;;;0.00;0.00;;;;;;;2.17;73.62;100279.72;15861875;28;20042;-54
2024/02/25 06:10:33;;;;;;;0.00;0.00;;;;;;;2.07;75.86;100282.56;15860712;28;20043;-47
2024/02/25 06:18:10;;;;;;;0.00;0.00;;;;;;;2.54;74.28;100289.78;15858405;28;20043;-49
2024/02/25 06:25:45;;;;;;;0.00;0.00;;;;;;;2.72;73.74;100292.22;15858232;28;20043;-50
2024/02/25 06:33:21;;;;;;;0.00;0.00;;;;;;;2.40;74.23;100288.63;15858229;28;20063;-49
2024/02/25 06:40:56;;;;;;;0.10;0.10;;;;;;;2.70;73.72;100295.00;15858126;28;20127;-49
2024/02/25 06:48:31;;;;;;;0.10;0.10;;;;;;;2.88;72.15;100281.53;15830761;28;20063;-46
2024/02/25 06:56:07;;;;;;;1.27;0.63;;;;;;;2.79;72.48;100282.56;15867368;28;20171;-48
2024/02/25 07:03:42;;;;;;;0.10;0.10;;;;;;;2.71;72.11;100275.50;15816178;28;20044;-48
2024/02/25 07:11:18;;;;;;;0.22;0.22;;;;;;;2.79;73.45;100282.56;15773234;28;1152031;-48
2024/02/25 07:18:52;;;;;;;0.05;0.03;;;;;;;3.07;71.58;100293.56;15808686;28;20044;-48
2024/02/25 07:26:27;;;;;;;0.00;0.00;;;;;;;3.41;70.57;100281.81;15789592;28;20052;-48
2024/02/25 07:34:02;;;;;;;0.22;0.10;;;;;;;3.37;69.86;100276.03;15806447;28;20085;-49
2024/02/25 07:41:37;;;;;;;0.15;0.15;;;;;;;3.77;71.09;100279.38;15807049;28;20032;-52
2024/02/25 07:49:10;;;;;;;0.50;0.50;;;;;;;4.39;69.56;100279.19;15835423;28;20489;-51
2024/02/25 07:56:45;;;;;;;0.43;0.20;;;;;;;4.25;68.75;100280.81;15869227;28;20073;-50
2024/02/25 08:04:19;;;;;;;0.00;0.00;;;;;;;4.74;67.37;100263.53;15868975;28;20046;-50
2024/02/25 08:11:57;;;;;;;0.43;0.43;;;;;;;5.10;65.80;100263.59;15806795;28;20098;-56
2024/02/25 08:19:30;;;;;;;0.20;0.20;;;;;;;5.39;65.14;100260.03;15805040;28;20396;-52
2024/02/25 08:27:05;;;;;;;;;;;;;;;4.56;68.61;100270.03;15806306;28;20040;-53
2024/02/25 08:34:39;;;;;;;0.00;0.00;;;;;;;5.22;66.81;100263.94;15804468;28;19920;-52
2024/02/25 08:42:15;;;;;;;0.00;0.00;;;;;;;5.54;66.56;100260.81;15804116;28;20048;-47
2024/02/25 08:49:59;;;;;;;0.00;0.00;;;;;;;5.86;64.37;100251.50;15849538;28;20031;-47
2024/02/25 08:57:37;;;;;;;2.20;0.38;;;;;;;7.21;61.13;100236.13;15864296;28;20057;-50
2024/02/25 09:05:10;;;;;;;0.00;0.00;;;;;;;8.59;57.14;100216.69;15857319;28;20071;-49
2024/02/25 09:12:47;;;;;;;0.28;0.28;;;;;;;9.13;55.98;100211.94;15808190;28;20044;-46
2024/02/25 09:20:22;;;;;;;0.00;0.00;;;;;;;8.69;57.69;100210.88;15804891;28;20097;-46
2024/02/25 09:27:59;;;;;;;0.00;0.00;;;;;;;10.23;54.08;100215.88;15789381;28;20074;-47
2024/02/25 09:35:32;;;;;;;0.30;0.30;;;;;;;11.04;51.67;100200.56;15818605;28;20409;-54
2024/02/25 09:43:13;;;;;;;0.32;0.32;;;;;;;11.30;50.28;100206.66;15803355;28;20214;-48
2024/02/25 09:50:48;;;;;;;0.00;0.00;;;;;;;12.56;47.81;100204.59;15837633;28;20047;-52
2024/02/25 09:58:23;;;;;;;0.35;0.35;;;;;;;11.93;49.56;100190.78;15865154;28;20058;-47
2024/02/25 10:05:58;;;;;;;0.40;0.40;;;;;;;13.50;44.20;100188.97;15864534;28;20044;-45
2024/02/25 10:13:33;;;;;;;0.32;0.32;;;;;;;13.08;44.71;100180.34;15864095;28;20723;-47
2024/02/25 10:21:08;;;;;;;0.43;0.20;;;;;;;14.18;42.78;100169.03;15845664;28;20114;-48
2024/02/25 10:28:43;;;;;;;0.00;0.00;;;;;;;14.36;42.49;100161.69;15863500;28;20039;-47
2024/02/25 10:36:19;;;;;;;0.00;0.00;;;;;;;14.24;41.01;100138.34;15861960;28;20153;-52
2024/02/25 10:43:59;;;;;;;1.08;0.98;;;;;;;15.12;40.08;100135.63;15862347;28;20492;-51
2024/02/25 10:51:36;;;;;;;0.10;0.10;;;;;;;15.20;38.92;100128.94;15836561;28;20118;-47
2024/02/25 10:59:13;;;;;;;0.00;0.00;;;;;;;14.97;40.03;100117.38;15845569;28;20500;-51
2024/02/25 11:06:48;;;;;;;3.10;0.52;;;;;;;14.73;38.63;100107.91;15821557;28;20572;-49
2024/02/25 11:14:29;;;;;;;0.00;0.00;;;;;;;16.11;35.16;100090.97;15799784;28;20077;-51
2024/02/25 11:22:03;;;;;;;0.28;0.17;;;;;;;15.00;35.99;100078.19;15800086;28;20040;-45
2024/02/25 11:29:38;;;;;;;0.03;0.03;;;;;;;14.34;35.93;100064.75;15796821;28;20040;-45
2024/02/25 11:37:17;;;;;;;0.00;0.00;;;;;;;15.50;33.92;100060.78;15837188;28;20105;-45
2024/02/25 11:44:52;;;;;;;0.13;0.13;;;;;;;15.43;33.72;100049.38;15837545;28;20078;-50
2024/02/25 11:52:29;;;;;;;0.00;0.00;;;;;;;15.13;35.00;100022.91;15853972;28;20251;-45
2024/02/25 12:00:10;;;;;;;0.20;0.20;;;;;;;15.62;33.63;100020.84;15789708;28;20123;-46
2024/02/25 12:07:56;;;;;;;0.00;0.00;;;;;;;16.11;33.55;100007.03;15807471;28;20044;-46
2024/02/25 12:15:31;;;;;;;0.00;0.00;;;;;;;15.23;33.98;99993.25;15790302;28;20038;-48
2024/02/25 12:23:09;;;;;;;0.00;0.00;;;;;;;14.85;33.53;99995.09;15824670;28;20028;-46
2024/02/25 12:30:50;;;;;;;0.00;0.00;;;;;;;16.61;32.14;99994.75;15806607;28;20477;-48
2024/02/25 12:38:24;;;;;;;0.75;0.22;;;;;;;16.65;32.87;99985.00;15804184;28;20511;-50
2024/02/25 12:46:00;;;;;;;0.00;0.00;;;;;;;15.74;32.72;99961.13;15812062;28;20066;-53
2024/02/25 12:53:33;;;;;;;0.08;0.08;;;;;;;16.73;31.51;99951.94;15801101;28;20404;-50
2024/02/25 13:01:09;;;;;;;1.92;0.60;;;;;;;15.86;33.26;99950.91;15783353;28;20042;-51
2024/02/25 13:08:42;;;;;;;0.00;0.00;;;;;;;15.51;34.23;99952.31;15800652;28;20389;-50
2024/02/25 13:16:19;;;;;;;0.00;0.00;;;;;;;14.47;36.67;99950.16;15796373;28;20657;-51
2024/02/25 13:23:53;;;;;;;0.00;0.00;;;;;;;12.78;39.22;99947.09;15795671;28;20356;-55
2024/02/25 13:31:34;;;;;;;0.00;0.00;;;;;;;13.05;39.38;99949.13;15799453;28;20119;-50
2024/02/25 13:39:09;;;;;;;0.17;0.17;;;;;;;12.54;39.87;99951.78;15799558;28;20036;-51
2024/02/25 13:46:47;;;;;;;0.00;0.00;;;;;;;12.76;40.44;99949.19;15780139;28;20036;-50
2024/02/25 13:54:24;;;;;;;0.47;0.45;;;;;;;12.26;40.58;99941.84;15812031;28;20040;-46
2024/02/25 14:01:59;;;;;;;0.32;0.32;;;;;;;12.73;41.01;99941.63;15795140;28;20520;-46
2024/02/25 14:09:32;;;;;;;1.10;0.22;;;;;;;12.69;41.26;99935.91;15798202;28;20076;-45
2024/02/25 14:17:08;;;;;;;0.05;0.05;;;;;;;12.36;41.58;99925.09;15794131;28;20746;-51
2024/02/25 14:24:41;;;;;;;0.00;0.00;;;;;;;12.91;40.96;99938.66;15793981;28;20048;-55
2024/02/25 14:32:16;;;;;;;0.00;0.00;;;;;;;12.58;40.92;99939.47;15796361;28;20126;-46
2024/02/25 14:39:50;;;;;;;0.20;0.13;;;;;;;12.22;41.42;99928.09;15839022;28;20553;-49
2024/02/25 14:47:25;;;;;;;0.00;0.00;;;;;;;12.72;40.10;99926.50;15830476;28;20105;-48
2024/02/25 14:55:00;;;;;;;0.10;0.05;;;;;;;12.62;41.28;99942.50;15802573;28;20044;-52
2024/02/25 15:02:35;;;;;;;0.30;0.20;;;;;;;12.42;42.65;99948.34;15794829;28;20048;-49
2024/02/25 15:10:11;;;;;;;0.80;0.63;;;;;;;12.30;42.66;99929.53;15796076;28;20674;-45
2024/02/25 15:17:47;;;;;;;0.00;0.00;;;;;;;12.02;42.71;99930.38;15808108;28;20512;-48
2024/02/25 15:25:21;;;;;;;0.00;0.00;;;;;;;12.30;43.36;99929.53;15806799;28;20123;-52
2024/02/25 15:32:56;;;;;;;0.00;0.00;;;;;;;12.19;43.84;99927.75;15806753;28;20097;-47
2024/02/25 15:40:31;;;;;;;0.00;0.00;;;;;;;11.62;44.81;99924.97;15788921;28;20066;-53
2024/02/25 15:48:07;;;;;;;0.00;0.00;;;;;;;11.74;44.67;99915.00;15818126;28;20095;-50
2024/02/25 15:55:41;;;;;;;0.00;0.00;;;;;;;11.80;44.85;99913.22;15818344;28;20032;-47
2024/02/25 16:03:18;;;;;;;0.00;0.00;;;;;;;11.26;46.12;99901.88;15852957;28;20036;-47
2024/02/25 16:10:52;;;;;;;0.17;0.17;;;;;;;11.01;46.25;99915.56;15805026;28;20036;-52
2024/02/25 16:18:27;;;;;;;0.00;0.00;;;;;;;10.46;47.81;99914.78;15798961;28;20090;-50
2024/02/25 16:26:04;;;;;;;0.00;0.00;;;;;;;10.21;48.62;99914.91;15802698;28;20038;-50
2024/02/25 16:33:41;;;;;;;0.00;0.00;;;;;;;10.19;48.86;99919.69;15800092;28;20063;-54
2024/02/25 16:41:16;;;;;;;0.00;0.00;;;;;;;10.79;47.90;99924.19;15797953;28;20037;-53
2024/02/25 16:48:52;;;;;;;0.20;0.20;;;;;;;10.57;48.05;99929.25;15818007;28;20035;-51
2024/02/25 16:56:26;;;;;;;0.00;0.00;;;;;;;10.60;47.71;99939.56;15801792;28;20051;-51
2024/02/25 17:04:02;;;;;;;0.00;0.00;;;;;;;10.40;48.59;99942.53;15800611;28;20043;-53
2024/02/25 17:11:36;;;;;;;1.60;0.55;;;;;;;10.08;49.90;99955.31;15766097;28;20048;-50
2024/02/25 17:19:11;;;;;;;0.25;0.20;;;;;;;9.83;50.28;99962.63;15781722;28;20443;-53
2024/02/25 17:26:45;;;;;;;0.00;0.00;;;;;;;9.39;51.86;99962.69;15799124;28;20504;-50
2024/02/25 17:34:20;;;;;;;;;;;;;;;8.91;53.40;99968.69;15798556;28;20044;-50
2024/02/25 17:41:55;;;;;;;0.00;0.00;;;;;;;8.63;53.90;99979.81;15797765;28;19946;-51
2024/02/25 17:49:30;;;;;;;0.00;0.00;;;;;;;8.43;55.00;99982.59;15831990;28;20040;-48
2024/02/25 17:57:04;;;;;;;0.00;0.00;;;;;;;8.40;54.57;99975.00;15813384;28;20040;-50
2024/02/25 18:04:39;;;;;;;0.00;0.00;;;;;;;8.16;55.31;99984.56;15792459;28;20040;-51
2024/02/25 18:12:15;;;;;;;0.00;0.00;;;;;;;8.00;55.76;99974.34;15849350;28;20040;-53
2024/02/25 18:19:53;;;;;;;1.27;0.85;;;;;;;7.44;56.78;99974.13;15856806;28;20071;-50
2024/02/25 18:27:27;;;;;;;0.00;0.00;;;;;;;7.23;58.05;99978.69;15837204;28;20496;-50
2024/02/25 18:35:02;;;;;;;0.00;0.00;;;;;;;6.71;59.47;99985.63;15856566;28;20092;-48
2024/02/25 18:42:38;;;;;;;0.00;0.00;;;;;;;7.11;59.11;99989.16;15855707;28;20046;-50
2024/02/25 18:50:13;;;;;;;;;;;;;;;6.99;59.27;99982.78;15806972;28;20032;-51
2024/02/25 18:57:47;;;;;;;0.00;0.00;;;;;;;6.93;58.95;99961.44;15774182;28;19924;-50
2024/02/25 19:05:23;;;;;;;0.22;0.22;;;;;;;6.71;60.21;99958.97;15771570;28;20051;-50
2024/02/25 19:12:56;;;;;;;0.63;0.63;;;;;;;6.56;60.25;99964.50;15808303;28;20123;-52
2024/02/25 19:20:33;;;;;;;4.28;0.90;;;;;;;6.49;60.60;99974.34;15790850;28;20028;-53
2024/02/25 19:28:07;;;;;;;0.05;0.05;;;;;;;6.34;60.97;99973.66;15791303;28;20079;-50
2024/02/25 19:35:43;;;;;;;0.10;0.10;;;;;;;5.85;61.76;99969.38;15792040;28;20038;-51
2024/02/25 19:43:18;;;;;;;0.00;0.00;;;;;;;5.60;62.95;99977.06;15789529;28;20172;-50
2024/02/25 19:50:53;;;;;;;0.00;0.00;;;;;;;5.40;63.46;99981.41;15841953;28;20089;-51
2024/02/25 19:58:27;;;;;;;0.00;0.00;;;;;;;5.30;63.96;99979.09;15856797;28;20043;-50
2024/02/25 20:06:02;;;;;;;0.00;0.00;;;;;;;5.07;65.14;99974.84;15833836;28;20040;-52
2024/02/25 20:13:36;;;;;;;1.25;0.80;;;;;;;4.99;65.70;99988.31;15807947;28;20044;-53
2024/02/25 20:21:11;;;;;;;0.45;0.28;;;;;;;4.32;67.54;99983.38;15815883;28;20488;-51
2024/02/25 20:28:45;;;;;;;0.00;0.00;;;;;;;4.75;65.68;99973.56;15806548;28;20451;-52
2024/02/25 20:36:20;;;;;;;0.20;0.20;;;;;;;4.87;65.36;99989.84;15839578;28;20047;-50
2024/02/25 20:43:54;;;;;;;0.03;0.03;;;;;;;3.62;71.65;99998.03;15784708;28;20535;-53
2024/02/25 20:51:28;;;;;;;;;;;;;;;3.77;69.57;99988.22;15861737;28;20036;-52
2024/02/25 20:59:02;;;;;;;0.00;0.00;;;;;;;4.04;68.63;99978.78;15803815;28;19955;-55
2024/02/25 21:06:42;;;;;;;0.20;0.17;;;;;;;4.57;67.11;99982.00;15800798;28;20067;-54
2024/02/25 21:14:19;;;;;;;0.00;0.00;;;;;;;3.45;71.57;99997.41;15799552;28;20120;-51
2024/02/25 21:21:54;;;;;;;0.00;0.00;;;;;;;4.42;67.93;99991.03;15862017;28;20047;-51
2024/02/25 21:29:28;;;;;;;1.00;0.63;;;;;;;4.74;65.84;99989.72;15862974;28;20455;-50
2024/02/25 21:37:05;;;;;;;0.35;0.35;;;;;;;4.46;66.33;99998.44;15862272;28;20496;-54
2024/02/25 21:44:39;;;;;;;0.25;0.25;;;;;;;4.34;66.38;99994.66;15805026;28;20036;-48
2024/02/25 21:52:14;;;;;;;1.45;0.57;;;;;;;4.11;66.60;99989.47;15833185;28;20398;-50
2024/02/25 21:59:48;;;;;;;4.93;1.77;;;;;;;4.02;67.37;99991.41;15858883;28;20135;-50
2024/02/25 22:07:23;;;;;;;0.20;0.20;;;;;;;3.96;67.48;99996.63;15846240;28;20089;-50
2024/02/25 22:14:57;;;;;;;1.17;1.13;;;;;;;3.67;68.09;99990.34;15943564;22;20139;-51
2024/02/25 22:22:33;;;;;;;0.10;0.10;;;;;;;3.35;68.29;99998.66;15894879;27;20035;-51
2024/02/25 22:30:08;;;;;;;0.20;0.20;;;;;;;3.07;70.52;100000.09;15848814;28;20399;-50
2024/02/25 22:37:45;;;;;;;0.95;0.90;;;;;;;2.92;71.06;100004.53;15863835;28;20071;-52
2024/02/25 22:45:21;;;;;;;0.77;0.77;;;;;;;3.07;70.04;100009.88;15872057;27;20076;-51
2024/02/25 22:52:56;;;;;;;0.28;0.22;;;;;;;3.11;69.57;100007.69;15930224;27;20047;-51
2024/02/25 23:00:29;;;;;;;1.30;0.70;;;;;;;3.16;69.64;100019.41;15898093;28;20676;-52
2024/02/25 23:08:05;;;;;;;2.70;1.05;;;;;;;3.09;69.54;100007.06;15926941;27;20541;-52
2024/02/25 23:15:39;;;;;;;0.45;0.45;;;;;;;2.91;69.29;100010.84;15926562;28;20045;-51
2024/02/25 23:23:15;;;;;;;0.03;0.03;;;;;;;2.89;69.24;99996.09;15843125;28;20035;-52
2024/02/25 23:30:48;;;;;;;0.88;0.85;;;;;;;2.87;69.33;99996.28;15843059;28;20487;-51
2024/02/25 23:38:23;;;;;;;0.32;0.32;;;;;;;2.77;69.25;99996.53;15872911;28;20071;-51
2024/02/25 23:45:57;;;;;;;5.15;0.98;;;;;;;2.63;69.89;99984.06;15868451;27;20035;-51
2024/02/25 23:53:32;;;;;;;0.30;0.30;;;;;;;2.76;70.06;99975.53;15878744;27;20032;-50
